sensor_id;sensor_type;location;lat;lon;timestamp;pressure;altitude;pressure_sealevel;temperature;humidity
37066;BME280;22981;43.080;25.550;2023-02-21T00:00:07;99780.41;;;5.90;51.29
37066;BME280;22981;43.080;25.550;2023-02-21T00:02:52;99771.76;;;5.96;51.26
37066;BME280;22981;43.080;25.550;2023-02-21T00:05:36;99765.48;;;6.22;51.14
37066;BME280;22981;43.080;25.550;2023-02-21T00:08:20;99761.07;;;6.55;50.80
37066;BME280;22981;43.080;25.550;2023-02-21T00:11:05;99756.84;;;6.86;50.39
37066;BME280;22981;43.080;25.550;2023-02-21T00:13:49;99754.80;;;6.88;50.03
37066;BME280;22981;43.080;25.550;2023-02-21T00:16:34;99753.53;;;6.73;50.14
37066;BME280;22981;43.080;25.550;2023-02-21T00:19:18;99750.88;;;6.48;50.50
37066;BME280;22981;43.080;25.550;2023-02-21T00:22:03;99747.23;;;6.34;50.84
37066;BME280;22981;43.080;25.550;2023-02-21T00:24:47;99753.27;;;6.28;51.01
37066;BME280;22981;43.080;25.550;2023-02-21T00:27:32;99753.00;;;6.23;51.17
37066;BME280;22981;43.080;25.550;2023-02-21T00:30:17;99752.69;;;6.22;51.26
37066;BME280;22981;43.080;25.550;2023-02-21T00:33:01;99749.48;;;6.26;51.21
37066;BME280;22981;43.080;25.550;2023-02-21T00:35:45;99747.79;;;6.30;51.22
37066;BME280;22981;43.080;25.550;2023-02-21T00:38:30;99739.73;;;6.34;51.24
37066;BME280;22981;43.080;25.550;2023-02-21T00:41:14;99735.58;;;6.35;51.23
37066;BME280;22981;43.080;25.550;2023-02-21T00:43:58;99735.22;;;6.38;51.22
37066;BME280;22981;43.080;25.550;2023-02-21T00:46:43;99729.50;;;6.41;51.22
37066;BME280;22981;43.080;25.550;2023-02-21T00:49:28;99731.95;;;6.47;51.16
37066;BME280;22981;43.080;25.550;2023-02-21T00:52:12;99719.84;;;6.55;51.09
37066;BME280;22981;43.080;25.550;2023-02-21T00:54:57;99712.88;;;6.54;50.96
37066;BME280;22981;43.080;25.550;2023-02-21T00:57:41;99710.68;;;6.32;51.31
37066;BME280;22981;43.080;25.550;2023-02-21T01:00:26;99704.23;;;6.16;51.63
37066;BME280;22981;43.080;25.550;2023-02-21T01:16:28;99684.69;;;6.38;51.40
37066;BME280;22981;43.080;25.550;2023-02-21T01:19:12;99684.91;;;6.33;51.59
37066;BME280;22981;43.080;25.550;2023-02-21T01:21:57;99681.64;;;6.41;51.51
37066;BME280;22981;43.080;25.550;2023-02-21T01:24:41;99682.69;;;6.62;51.27
37066;BME280;22981;43.080;25.550;2023-02-21T01:27:26;99679.60;;;6.90;50.89
37066;BME280;22981;43.080;25.550;2023-02-21T01:30:10;99665.39;;;7.15;50.52
37066;BME280;22981;43.080;25.550;2023-02-21T01:32:55;99661.67;;;7.27;50.19
37066;BME280;22981;43.080;25.550;2023-02-21T01:35:40;99655.08;;;7.23;50.14
37066;BME280;22981;43.080;25.550;2023-02-21T01:38:24;99656.83;;;7.09;50.29
37066;BME280;22981;43.080;25.550;2023-02-21T01:41:08;99650.06;;;6.96;50.49
37066;BME280;22981;43.080;25.550;2023-02-21T01:43:59;99651.72;;;6.86;50.73
37066;BME280;22981;43.080;25.550;2023-02-21T01:46:44;99654.08;;;6.85;50.79
37066;BME280;22981;43.080;25.550;2023-02-21T01:49:28;99655.78;;;6.82;50.86
37066;BME280;22981;43.080;25.550;2023-02-21T01:52:13;99654.89;;;6.86;50.88
37066;BME280;22981;43.080;25.550;2023-02-21T01:54:57;99656.64;;;6.89;50.83
37066;BME280;22981;43.080;25.550;2023-02-21T01:57:43;99651.25;;;6.93;50.79
37066;BME280;22981;43.080;25.550;2023-02-21T02:00:29;99649.81;;;6.91;50.84
37066;BME280;22981;43.080;25.550;2023-02-21T02:03:15;99643.60;;;6.84;50.97
37066;BME280;22981;43.080;25.550;2023-02-21T02:06:01;99644.99;;;6.80;51.09
37066;BME280;22981;43.080;25.550;2023-02-21T02:08:45;99630.17;;;6.70;51.23
37066;BME280;22981;43.080;25.550;2023-02-21T02:11:37;99634.43;;;6.65;51.41
37066;BME280;22981;43.080;25.550;2023-02-21T02:27:49;99609.72;;;6.39;51.81
37066;BME280;22981;43.080;25.550;2023-02-21T02:30:33;99597.48;;;6.34;51.92
37066;BME280;22981;43.080;25.550;2023-02-21T02:35:33;99593.49;;;6.23;52.21
37066;BME280;22981;43.080;25.550;2023-02-21T02:38:02;99589.36;;;6.20;52.29
37066;BME280;22981;43.080;25.550;2023-02-21T02:40:33;99582.72;;;6.20;52.31
37066;BME280;22981;43.080;25.550;2023-02-21T02:48:25;99582.85;;;6.34;52.12
37066;BME280;22981;43.080;25.550;2023-02-21T02:50:41;99592.05;;;6.31;52.06
37066;BME280;22981;43.080;25.550;2023-02-21T02:53:09;99588.48;;;6.24;52.18
37066;BME280;22981;43.080;25.550;2023-02-21T02:55:46;99592.59;;;6.16;52.28
37066;BME280;22981;43.080;25.550;2023-02-21T02:58:13;99587.16;;;6.13;52.39
37066;BME280;22981;43.080;25.550;2023-02-21T03:00:42;99594.26;;;6.17;52.40
37066;BME280;22981;43.080;25.550;2023-02-21T03:08:33;99591.31;;;6.12;52.46
37066;BME280;22981;43.080;25.550;2023-02-21T03:15:59;99587.78;;;6.05;52.63
37066;BME280;22981;43.080;25.550;2023-02-21T03:18:30;99584.98;;;6.02;52.72
37066;BME280;22981;43.080;25.550;2023-02-21T03:20:57;99584.61;;;6.05;52.74
37066;BME280;22981;43.080;25.550;2023-02-21T03:23:26;99578.02;;;6.12;52.65
37066;BME280;22981;43.080;25.550;2023-02-21T03:25:55;99580.17;;;6.12;52.58
37066;BME280;22981;43.080;25.550;2023-02-21T03:28:22;99578.02;;;6.12;52.66
37066;BME280;22981;43.080;25.550;2023-02-21T03:30:50;99577.85;;;6.24;52.53
37066;BME280;22981;43.080;25.550;2023-02-21T03:33:17;99579.83;;;6.26;52.37
37066;BME280;22981;43.080;25.550;2023-02-21T03:35:44;99586.05;;;6.08;52.55
37066;BME280;22981;43.080;25.550;2023-02-21T03:38:11;99584.27;;;5.93;52.86
37066;BME280;22981;43.080;25.550;2023-02-21T03:40:38;99584.70;;;5.82;53.07
37066;BME280;22981;43.080;25.550;2023-02-21T03:43:05;99590.57;;;5.77;53.23
37066;BME280;22981;43.080;25.550;2023-02-21T03:45:32;99591.23;;;5.80;53.34
37066;BME280;22981;43.080;25.550;2023-02-21T03:47:59;99595.27;;;5.86;53.33
37066;BME280;22981;43.080;25.550;2023-02-21T03:50:26;99597.95;;;6.01;53.15
37066;BME280;22981;43.080;25.550;2023-02-21T03:52:53;99594.68;;;6.10;52.91
37066;BME280;22981;43.080;25.550;2023-02-21T03:55:20;99594.80;;;6.12;52.84
37066;BME280;22981;43.080;25.550;2023-02-21T03:57:46;99597.08;;;6.15;52.81
37066;BME280;22981;43.080;25.550;2023-02-21T04:00:13;99602.03;;;6.18;52.77
37066;BME280;22981;43.080;25.550;2023-02-21T04:02:41;99600.56;;;6.16;52.78
37066;BME280;22981;43.080;25.550;2023-02-21T04:05:07;99595.95;;;6.14;52.83
37066;BME280;22981;43.080;25.550;2023-02-21T04:07:34;99589.36;;;6.10;52.89
37066;BME280;22981;43.080;25.550;2023-02-21T04:10:01;99594.48;;;6.11;52.90
37066;BME280;22981;43.080;25.550;2023-02-21T04:12:28;99590.33;;;6.13;52.90
37066;BME280;22981;43.080;25.550;2023-02-21T04:14:55;99583.17;;;6.13;52.87
37066;BME280;22981;43.080;25.550;2023-02-21T04:17:23;99584.81;;;6.14;52.86
37066;BME280;22981;43.080;25.550;2023-02-21T04:19:50;99580.12;;;6.16;52.83
37066;BME280;22981;43.080;25.550;2023-02-21T04:22:17;99578.67;;;6.14;52.85
37066;BME280;22981;43.080;25.550;2023-02-21T04:24:43;99571.38;;;6.12;52.92
37066;BME280;22981;43.080;25.550;2023-02-21T04:27:12;99581.02;;;6.13;52.92
37066;BME280;22981;43.080;25.550;2023-02-21T04:29:39;99577.34;;;6.14;52.94
37066;BME280;22981;43.080;25.550;2023-02-21T04:32:06;99577.66;;;6.15;52.94
37066;BME280;22981;43.080;25.550;2023-02-21T04:34:33;99567.67;;;6.17;52.94
37066;BME280;22981;43.080;25.550;2023-02-21T04:36:59;99563.98;;;6.28;52.85
37066;BME280;22981;43.080;25.550;2023-02-21T04:39:26;99563.74;;;6.45;52.59
37066;BME280;22981;43.080;25.550;2023-02-21T04:41:53;99571.16;;;6.60;52.35
37066;BME280;22981;43.080;25.550;2023-02-21T04:44:20;99560.05;;;6.67;52.14
37066;BME280;22981;43.080;25.550;2023-02-21T04:46:46;99568.67;;;6.69;52.15
37066;BME280;22981;43.080;25.550;2023-02-21T04:49:13;99570.52;;;6.69;52.13
37066;BME280;22981;43.080;25.550;2023-02-21T04:51:40;99559.16;;;6.71;52.18
37066;BME280;22981;43.080;25.550;2023-02-21T04:54:07;99557.08;;;6.77;52.07
37066;BME280;22981;43.080;25.550;2023-02-21T04:56:34;99556.64;;;6.73;52.13
37066;BME280;22981;43.080;25.550;2023-02-21T04:59:02;99557.80;;;6.64;52.24
37066;BME280;22981;43.080;25.550;2023-02-21T05:01:29;99562.53;;;6.58;52.38
37066;BME280;22981;43.080;25.550;2023-02-21T05:03:57;99553.69;;;6.51;52.45
37066;BME280;22981;43.080;25.550;2023-02-21T05:06:24;99544.45;;;6.47;52.56
37066;BME280;22981;43.080;25.550;2023-02-21T05:08:51;99546.77;;;6.46;52.58
37066;BME280;22981;43.080;25.550;2023-02-21T05:11:18;99538.68;;;6.43;52.62
37066;BME280;22981;43.080;25.550;2023-02-21T05:13:45;99544.82;;;6.44;52.63
37066;BME280;22981;43.080;25.550;2023-02-21T05:16:12;99538.85;;;6.42;52.67
37066;BME280;22981;43.080;25.550;2023-02-21T05:18:43;99539.56;;;6.40;52.76
37066;BME280;22981;43.080;25.550;2023-02-21T05:21:09;99529.68;;;6.44;52.70
37066;BME280;22981;43.080;25.550;2023-02-21T05:23:37;99534.42;;;6.49;52.61
37066;BME280;22981;43.080;25.550;2023-02-21T05:26:06;99520.11;;;6.50;52.56
37066;BME280;22981;43.080;25.550;2023-02-21T05:28:33;99525.12;;;6.49;52.58
37066;BME280;22981;43.080;25.550;2023-02-21T05:31:00;99532.48;;;6.47;52.63
37066;BME280;22981;43.080;25.550;2023-02-21T05:33:27;99535.31;;;6.45;52.70
37066;BME280;22981;43.080;25.550;2023-02-21T05:35:54;99531.32;;;6.45;52.70
37066;BME280;22981;43.080;25.550;2023-02-21T05:38:21;99534.29;;;6.46;52.72
37066;BME280;22981;43.080;25.550;2023-02-21T05:40:48;99521.44;;;6.50;52.69
37066;BME280;22981;43.080;25.550;2023-02-21T05:43:15;99531.19;;;6.53;52.65
37066;BME280;22981;43.080;25.550;2023-02-21T05:45:42;99530.17;;;6.55;52.63
37066;BME280;22981;43.080;25.550;2023-02-21T05:48:09;99539.81;;;6.56;52.64
37066;BME280;22981;43.080;25.550;2023-02-21T05:50:36;99536.81;;;6.55;52.67
37066;BME280;22981;43.080;25.550;2023-02-21T05:53:04;99545.95;;;6.56;52.70
37066;BME280;22981;43.080;25.550;2023-02-21T05:55:31;99546.40;;;6.60;52.65
37066;BME280;22981;43.080;25.550;2023-02-21T05:57:58;99538.42;;;6.60;52.70
37066;BME280;22981;43.080;25.550;2023-02-21T06:00:26;99539.28;;;6.67;52.65
37066;BME280;22981;43.080;25.550;2023-02-21T06:02:53;99540.41;;;6.79;52.56
37066;BME280;22981;43.080;25.550;2023-02-21T06:05:20;99538.04;;;6.91;52.47
37066;BME280;22981;43.080;25.550;2023-02-21T06:07:47;99546.86;;;7.09;52.30
37066;BME280;22981;43.080;25.550;2023-02-21T06:10:15;99539.81;;;7.29;52.08
37066;BME280;22981;43.080;25.550;2023-02-21T06:12:42;99533.16;;;7.53;51.80
37066;BME280;22981;43.080;25.550;2023-02-21T06:15:09;99530.80;;;7.78;51.56
37066;BME280;22981;43.080;25.550;2023-02-21T06:17:38;99531.30;;;8.08;51.25
37066;BME280;22981;43.080;25.550;2023-02-21T06:20:05;99532.83;;;8.37;50.96
37066;BME280;22981;43.080;25.550;2023-02-21T06:22:32;99525.14;;;8.71;50.55
37066;BME280;22981;43.080;25.550;2023-02-21T06:24:58;99520.67;;;9.08;49.94
37066;BME280;22981;43.080;25.550;2023-02-21T06:27:25;99516.70;;;9.43;49.43
37066;BME280;22981;43.080;25.550;2023-02-21T06:29:52;99518.92;;;9.75;48.95
37066;BME280;22981;43.080;25.550;2023-02-21T06:32:19;99517.64;;;10.07;48.50
37066;BME280;22981;43.080;25.550;2023-02-21T06:34:46;99516.22;;;10.36;48.06
37066;BME280;22981;43.080;25.550;2023-02-21T06:37:12;99517.81;;;10.60;47.82
37066;BME280;22981;43.080;25.550;2023-02-21T06:39:39;99514.22;;;10.82;47.37
37066;BME280;22981;43.080;25.550;2023-02-21T06:42:06;99519.31;;;10.99;47.12
37066;BME280;22981;43.080;25.550;2023-02-21T06:44:33;99527.02;;;11.14;46.68
37066;BME280;22981;43.080;25.550;2023-02-21T06:47:00;99530.23;;;11.22;46.52
37066;BME280;22981;43.080;25.550;2023-02-21T06:49:26;99529.77;;;11.35;46.46
37066;BME280;22981;43.080;25.550;2023-02-21T06:51:53;99520.41;;;11.53;46.29
37066;BME280;22981;43.080;25.550;2023-02-21T06:54:20;99532.05;;;11.77;45.87
37066;BME280;22981;43.080;25.550;2023-02-21T06:56:47;99531.39;;;12.00;45.32
37066;BME280;22981;43.080;25.550;2023-02-21T06:59:13;99526.05;;;12.21;45.09
37066;BME280;22981;43.080;25.550;2023-02-21T07:01:40;99524.52;;;12.46;44.59
37066;BME280;22981;43.080;25.550;2023-02-21T07:04:07;99521.36;;;12.70;44.15
37066;BME280;22981;43.080;25.550;2023-02-21T07:06:34;99521.31;;;12.91;43.83
37066;BME280;22981;43.080;25.550;2023-02-21T07:09:01;99511.85;;;13.12;43.50
37066;BME280;22981;43.080;25.550;2023-02-21T07:11:29;99515.52;;;13.32;43.39
37066;BME280;22981;43.080;25.550;2023-02-21T07:13:56;99512.70;;;13.50;43.17
37066;BME280;22981;43.080;25.550;2023-02-21T07:16:24;99507.27;;;13.62;42.63
37066;BME280;22981;43.080;25.550;2023-02-21T07:18:51;99519.54;;;13.69;42.56
37066;BME280;22981;43.080;25.550;2023-02-21T07:21:18;99517.09;;;13.68;42.34
37066;BME280;22981;43.080;25.550;2023-02-21T07:23:46;99521.13;;;13.68;42.34
37066;BME280;22981;43.080;25.550;2023-02-21T07:26:12;99515.56;;;13.72;42.37
37066;BME280;22981;43.080;25.550;2023-02-21T07:28:41;99514.91;;;13.79;42.33
37066;BME280;22981;43.080;25.550;2023-02-21T07:31:10;99521.35;;;13.92;41.70
37066;BME280;22981;43.080;25.550;2023-02-21T07:33:37;99514.48;;;14.13;41.31
37066;BME280;22981;43.080;25.550;2023-02-21T07:36:04;99502.75;;;14.36;41.03
37066;BME280;22981;43.080;25.550;2023-02-21T07:38:30;99505.53;;;14.41;40.82
37066;BME280;22981;43.080;25.550;2023-02-21T07:40:58;99501.45;;;14.53;39.79
37066;BME280;22981;43.080;25.550;2023-02-21T07:43:25;99498.63;;;14.62;39.64
37066;BME280;22981;43.080;25.550;2023-02-21T07:45:52;99498.91;;;14.80;39.07
37066;BME280;22981;43.080;25.550;2023-02-21T07:48:20;99488.98;;;15.02;39.14
37066;BME280;22981;43.080;25.550;2023-02-21T07:50:47;99484.95;;;15.22;38.51
37066;BME280;22981;43.080;25.550;2023-02-21T07:53:14;99479.25;;;15.40;38.25
37066;BME280;22981;43.080;25.550;2023-02-21T07:55:41;99475.67;;;15.57;38.17
37066;BME280;22981;43.080;25.550;2023-02-21T07:58:08;99473.25;;;15.58;37.65
37066;BME280;22981;43.080;25.550;2023-02-21T08:00:35;99471.80;;;15.69;36.56
37066;BME280;22981;43.080;25.550;2023-02-21T08:03:02;99469.80;;;15.84;36.92
37066;BME280;22981;43.080;25.550;2023-02-21T08:05:28;99462.72;;;16.05;36.39
37066;BME280;22981;43.080;25.550;2023-02-21T08:07:55;99465.34;;;16.27;35.78
37066;BME280;22981;43.080;25.550;2023-02-21T08:10:23;99463.64;;;16.48;35.30
37066;BME280;22981;43.080;25.550;2023-02-21T08:12:50;99455.93;;;16.64;34.98
37066;BME280;22981;43.080;25.550;2023-02-21T08:15:17;99453.38;;;16.80;34.63
37066;BME280;22981;43.080;25.550;2023-02-21T08:17:47;99456.16;;;16.95;34.49
37066;BME280;22981;43.080;25.550;2023-02-21T08:20:12;99456.00;;;17.14;34.27
37066;BME280;22981;43.080;25.550;2023-02-21T08:22:40;99453.11;;;17.31;33.57
37066;BME280;22981;43.080;25.550;2023-02-21T08:25:09;99451.55;;;17.48;33.52
37066;BME280;22981;43.080;25.550;2023-02-21T08:27:40;99449.69;;;17.64;32.74
37066;BME280;22981;43.080;25.550;2023-02-21T08:30:15;99447.07;;;17.79;33.17
37066;BME280;22981;43.080;25.550;2023-02-21T08:32:39;99446.55;;;17.97;32.70
37066;BME280;22981;43.080;25.550;2023-02-21T08:35:06;99450.66;;;18.18;32.62
37066;BME280;22981;43.080;25.550;2023-02-21T08:37:33;99450.13;;;18.39;32.37
37066;BME280;22981;43.080;25.550;2023-02-21T08:40:01;99446.59;;;18.59;31.95
37066;BME280;22981;43.080;25.550;2023-02-21T08:42:28;99449.59;;;18.72;30.86
37066;BME280;22981;43.080;25.550;2023-02-21T08:44:55;99441.16;;;18.89;30.98
37066;BME280;22981;43.080;25.550;2023-02-21T08:47:22;99441.93;;;19.03;31.03
37066;BME280;22981;43.080;25.550;2023-02-21T08:49:49;99444.06;;;19.16;30.93
37066;BME280;22981;43.080;25.550;2023-02-21T08:52:16;99443.47;;;19.32;30.69
37066;BME280;22981;43.080;25.550;2023-02-21T08:54:43;99439.86;;;19.44;30.05
37066;BME280;22981;43.080;25.550;2023-02-21T08:57:10;99438.19;;;19.56;29.33
37066;BME280;22981;43.080;25.550;2023-02-21T08:59:41;99439.25;;;19.70;29.62
37066;BME280;22981;43.080;25.550;2023-02-21T09:02:23;99438.33;;;19.85;29.50
37066;BME280;22981;43.080;25.550;2023-02-21T09:04:46;99434.13;;;20.03;29.52
37066;BME280;22981;43.080;25.550;2023-02-21T09:07:14;99423.94;;;20.21;29.72
37066;BME280;22981;43.080;25.550;2023-02-21T09:09:41;99430.88;;;20.37;29.31
37066;BME280;22981;43.080;25.550;2023-02-21T09:12:08;99419.91;;;20.53;28.63
37066;BME280;22981;43.080;25.550;2023-02-21T09:14:35;99429.05;;;20.64;28.56
37066;BME280;22981;43.080;25.550;2023-02-21T09:17:03;99424.30;;;20.75;27.89
37066;BME280;22981;43.080;25.550;2023-02-21T09:19:30;99425.55;;;20.85;27.70
37066;BME280;22981;43.080;25.550;2023-02-21T09:21:57;99415.38;;;20.96;27.46
37066;BME280;22981;43.080;25.550;2023-02-21T09:24:24;99404.48;;;20.98;26.74
37066;BME280;22981;43.080;25.550;2023-02-21T09:26:52;99418.29;;;21.02;26.66
37066;BME280;22981;43.080;25.550;2023-02-21T09:29:26;99409.22;;;21.12;26.56
37066;BME280;22981;43.080;25.550;2023-02-21T09:31:53;99415.39;;;21.20;26.67
37066;BME280;22981;43.080;25.550;2023-02-21T09:34:20;99421.02;;;21.26;26.25
37066;BME280;22981;43.080;25.550;2023-02-21T09:36:47;99415.00;;;21.29;25.93
37066;BME280;22981;43.080;25.550;2023-02-21T09:39:15;99409.19;;;21.38;26.20
37066;BME280;22981;43.080;25.550;2023-02-21T09:41:42;99430.83;;;21.48;26.31
37066;BME280;22981;43.080;25.550;2023-02-21T09:44:16;99410.17;;;21.45;26.01
37066;BME280;22981;43.080;25.550;2023-02-21T09:46:39;99404.53;;;21.41;25.32
37066;BME280;22981;43.080;25.550;2023-02-21T09:49:10;99401.09;;;21.33;25.64
37066;BME280;22981;43.080;25.550;2023-02-21T09:51:34;99387.16;;;21.37;25.64
37066;BME280;22981;43.080;25.550;2023-02-21T09:54:03;99392.55;;;21.40;25.61
37066;BME280;22981;43.080;25.550;2023-02-21T09:56:35;99396.71;;;21.54;25.61
37066;BME280;22981;43.080;25.550;2023-02-21T09:59:02;99388.03;;;21.70;25.71
37066;BME280;22981;43.080;25.550;2023-02-21T10:04:03;99380.83;;;21.96;25.80
37066;BME280;22981;43.080;25.550;2023-02-21T10:06:42;99378.16;;;22.10;25.38
37066;BME280;22981;43.080;25.550;2023-02-21T10:09:09;99378.95;;;22.13;25.31
37066;BME280;22981;43.080;25.550;2023-02-21T10:11:56;99370.84;;;22.08;24.99
37066;BME280;22981;43.080;25.550;2023-02-21T10:14:36;99369.84;;;22.01;25.37
37066;BME280;22981;43.080;25.550;2023-02-21T10:19:42;99369.08;;;22.17;24.60
37066;BME280;22981;43.080;25.550;2023-02-21T10:22:20;99361.08;;;22.23;24.88
37066;BME280;22981;43.080;25.550;2023-02-21T10:24:37;99355.32;;;22.24;24.86
37066;BME280;22981;43.080;25.550;2023-02-21T10:27:06;99347.94;;;22.25;24.59
37066;BME280;22981;43.080;25.550;2023-02-21T10:30:06;99355.50;;;22.14;24.46
37066;BME280;22981;43.080;25.550;2023-02-21T10:32:06;99345.03;;;22.03;24.79
37066;BME280;22981;43.080;25.550;2023-02-21T10:34:34;99345.25;;;22.06;24.71
37066;BME280;22981;43.080;25.550;2023-02-21T10:37:02;99339.39;;;22.15;24.50
37066;BME280;22981;43.080;25.550;2023-02-21T10:39:31;99332.14;;;22.24;24.48
37066;BME280;22981;43.080;25.550;2023-02-21T10:41:57;99333.25;;;22.23;24.42
37066;BME280;22981;43.080;25.550;2023-02-21T10:44:27;99321.23;;;22.24;24.48
37066;BME280;22981;43.080;25.550;2023-02-21T10:46:59;99309.80;;;22.22;24.08
37066;BME280;22981;43.080;25.550;2023-02-21T10:49:24;99309.16;;;21.95;24.65
37066;BME280;22981;43.080;25.550;2023-02-21T10:52:53;99300.39;;;21.82;24.46
37066;BME280;22981;43.080;25.550;2023-02-21T10:54:30;99300.04;;;21.70;24.56
37066;BME280;22981;43.080;25.550;2023-02-21T10:56:56;99290.83;;;21.85;24.78
37066;BME280;22981;43.080;25.550;2023-02-21T10:59:29;99295.19;;;21.99;24.59
37066;BME280;22981;43.080;25.550;2023-02-21T11:01:56;99278.34;;;21.81;24.66
37066;BME280;22981;43.080;25.550;2023-02-21T11:04:24;99273.35;;;21.69;24.77
37066;BME280;22981;43.080;25.550;2023-02-21T11:06:57;99273.13;;;21.66;25.08
37066;BME280;22981;43.080;25.550;2023-02-21T11:17:19;99241.88;;;22.40;24.47
37066;BME280;22981;43.080;25.550;2023-02-21T11:19:47;99232.50;;;22.43;23.91
37066;BME280;22981;43.080;25.550;2023-02-21T11:22:35;99235.05;;;22.40;23.98
37066;BME280;22981;43.080;25.550;2023-02-21T11:30:27;99223.06;;;22.38;23.57
37066;BME280;22981;43.080;25.550;2023-02-21T11:32:57;99229.70;;;22.48;23.63
37066;BME280;22981;43.080;25.550;2023-02-21T11:35:27;99219.68;;;22.58;23.45
37066;BME280;22981;43.080;25.550;2023-02-21T11:37:55;99228.41;;;22.71;23.32
37066;BME280;22981;43.080;25.550;2023-02-21T11:40:27;99217.23;;;22.56;22.87
37066;BME280;22981;43.080;25.550;2023-02-21T11:42:50;99222.56;;;22.50;23.10
37066;BME280;22981;43.080;25.550;2023-02-21T11:45:27;99205.67;;;22.48;22.93
37066;BME280;22981;43.080;25.550;2023-02-21T11:47:58;99216.00;;;22.37;22.69
37066;BME280;22981;43.080;25.550;2023-02-21T11:50:23;99219.12;;;22.00;23.10
37066;BME280;22981;43.080;25.550;2023-02-21T11:55:18;99229.08;;;21.78;23.26
37066;BME280;22981;43.080;25.550;2023-02-21T12:00:47;99203.88;;;22.16;23.18
37066;BME280;22981;43.080;25.550;2023-02-21T12:05:45;99211.29;;;22.27;22.89
37066;BME280;22981;43.080;25.550;2023-02-21T12:08:19;99193.77;;;22.30;22.64
37066;BME280;22981;43.080;25.550;2023-02-21T12:24:09;99169.75;;;22.96;22.30
37066;BME280;22981;43.080;25.550;2023-02-21T12:26:47;99160.48;;;22.94;22.20
37066;BME280;22981;43.080;25.550;2023-02-21T12:32:04;99161.27;;;22.84;22.27
37066;BME280;22981;43.080;25.550;2023-02-21T12:39:39;99156.80;;;22.10;23.04
37066;BME280;22981;43.080;25.550;2023-02-21T12:47:13;99153.66;;;22.03;22.62
37066;BME280;22981;43.080;25.550;2023-02-21T12:49:44;99154.06;;;21.66;22.92
37066;BME280;22981;43.080;25.550;2023-02-21T12:54:48;99151.79;;;21.24;23.40
37066;BME280;22981;43.080;25.550;2023-02-21T12:57:20;99139.34;;;21.18;23.56
37066;BME280;22981;43.080;25.550;2023-02-21T13:05:17;99142.25;;;21.08;23.63
37066;BME280;22981;43.080;25.550;2023-02-21T13:07:49;99153.36;;;20.93;23.77
37066;BME280;22981;43.080;25.550;2023-02-21T13:15:28;99160.17;;;20.31;23.97
37066;BME280;22981;43.080;25.550;2023-02-21T13:18:04;99162.81;;;20.15;24.16
37066;BME280;22981;43.080;25.550;2023-02-21T13:20:27;99156.95;;;20.05;24.43
37066;BME280;22981;43.080;25.550;2023-02-21T13:28:28;99152.98;;;20.19;24.48
37066;BME280;22981;43.080;25.550;2023-02-21T13:30:57;99153.78;;;20.19;24.56
37066;BME280;22981;43.080;25.550;2023-02-21T13:33:28;99138.84;;;20.41;24.50
37066;BME280;22981;43.080;25.550;2023-02-21T13:35:56;99143.23;;;20.61;24.18
37066;BME280;22981;43.080;25.550;2023-02-21T13:38:25;99139.44;;;20.78;23.75
37066;BME280;22981;43.080;25.550;2023-02-21T13:41:07;99137.25;;;20.96;23.52
37066;BME280;22981;43.080;25.550;2023-02-21T13:43:31;99151.94;;;21.14;23.59
37066;BME280;22981;43.080;25.550;2023-02-21T13:48:43;99140.84;;;21.27;23.35
37066;BME280;22981;43.080;25.550;2023-02-21T13:51:43;99134.16;;;21.19;23.39
37066;BME280;22981;43.080;25.550;2023-02-21T13:56:38;99134.64;;;21.08;23.44
37066;BME280;22981;43.080;25.550;2023-02-21T13:58:51;99140.88;;;21.08;23.61
37066;BME280;22981;43.080;25.550;2023-02-21T14:03:55;99141.60;;;21.14;23.86
37066;BME280;22981;43.080;25.550;2023-02-21T14:06:35;99138.75;;;21.05;23.48
37066;BME280;22981;43.080;25.550;2023-02-21T14:09:16;99137.84;;;20.93;23.66
37066;BME280;22981;43.080;25.550;2023-02-21T14:11:49;99119.77;;;20.84;23.70
37066;BME280;22981;43.080;25.550;2023-02-21T14:16:52;99125.00;;;20.61;23.77
37066;BME280;22981;43.080;25.550;2023-02-21T14:19:23;99132.45;;;20.53;24.00
37066;BME280;22981;43.080;25.550;2023-02-21T14:24:33;99124.19;;;20.39;24.38
37066;BME280;22981;43.080;25.550;2023-02-21T14:27:02;99133.31;;;20.27;24.57
37066;BME280;22981;43.080;25.550;2023-02-21T14:36:59;99121.60;;;19.55;24.83
37066;BME280;22981;43.080;25.550;2023-02-21T14:39:29;99121.48;;;19.38;24.87
37066;BME280;22981;43.080;25.550;2023-02-21T14:45:25;99126.62;;;19.11;25.18
37066;BME280;22981;43.080;25.550;2023-02-21T14:49:40;99137.11;;;18.86;25.61
37066;BME280;22981;43.080;25.550;2023-02-21T14:52:17;99140.16;;;18.76;25.59
37066;BME280;22981;43.080;25.550;2023-02-21T15:00:03;99131.59;;;18.51;25.79
37066;BME280;22981;43.080;25.550;2023-02-21T15:05:05;99142.47;;;18.41;25.68
37066;BME280;22981;43.080;25.550;2023-02-21T15:07:48;99139.25;;;18.37;25.82
37066;BME280;22981;43.080;25.550;2023-02-21T15:12:47;99146.63;;;18.23;26.00
37066;BME280;22981;43.080;25.550;2023-02-21T15:15:15;99140.14;;;18.19;25.99
37066;BME280;22981;43.080;25.550;2023-02-21T15:17:42;99140.42;;;18.15;26.12
37066;BME280;22981;43.080;25.550;2023-02-21T15:20:14;99134.77;;;18.09;26.25
37066;BME280;22981;43.080;25.550;2023-02-21T15:22:37;99127.73;;;18.06;26.33
37066;BME280;22981;43.080;25.550;2023-02-21T15:30:06;99120.19;;;17.97;26.70
37066;BME280;22981;43.080;25.550;2023-02-21T15:32:34;99113.70;;;17.93;26.71
37066;BME280;22981;43.080;25.550;2023-02-21T15:35:02;99115.63;;;17.90;26.84
37066;BME280;22981;43.080;25.550;2023-02-21T15:37:29;99115.61;;;17.85;26.98
37066;BME280;22981;43.080;25.550;2023-02-21T15:39:58;99121.61;;;17.82;26.98
37066;BME280;22981;43.080;25.550;2023-02-21T15:42:25;99123.50;;;17.79;27.05
37066;BME280;22981;43.080;25.550;2023-02-21T15:44:57;99129.20;;;17.75;27.07
37066;BME280;22981;43.080;25.550;2023-02-21T15:47:25;99131.87;;;17.72;27.10
37066;BME280;22981;43.080;25.550;2023-02-21T15:55:13;99151.93;;;17.59;27.32